Terminal Aerodrome Forecast
Issued by NWS Newport/Morehead City, NC

Home | Current Version | Previous Version | Text Only | Print | Product List | Glossary On
Versions: 1 2 3 4 5 6 7 8 9 10 11 12 13 14 15 16
000
FTUS42 KMHX 211700 CCA
TAFEWN
TAF COR
KEWN 211731Z 2118/2218 25006KT P6SM SKC
     FM220100 29004KT P6SM FEW080 SCT250
     FM221300 30008KT P6SM SCT250=

USA.gov is the U.S. government's official web portal to all federal, state and local government web resources and services.